Have a Safe July 4th! 

Flight Track Log - Related Links

Times and Time Zones

All times are in EDT time to prevent confusion due to time zone crossing. See the EGF3308 flight status page for this flight to view local times or setup timezone preferences in your user account.

Time Position Orientation Groundspeed Altitude Reporting Facility
EDT Latitude Longitude Course Direction KTS MPH feet Rate Location/Type
Sat 11:10:32 AM 38.9933 -84.6667 347° North  Level FlightAware Approximate
Sat 11:10:50 AM 39.0500 -84.6833 212° Southwest 163 188 1,600  Level Cincinnati TRACON
Sat 11:15:23 AM 38.7883 -84.8892 192° South 295 339 11,100 1,910 Climbing Indianapolis Center
Sat 11:16:23 AM 38.6878 -84.9164 194° South 343 395 12,200 1,050 Climbing Indianapolis Center
Sat 11:17:23 AM 38.5811 -84.9492 194° South 386 444 13,200 1,100 Climbing Indianapolis Center
Sat 11:18:23 AM 38.4722 -84.9842 240° Southwest 406 467 14,400 1,250 Climbing Indianapolis Center
Sat 11:19:23 AM 38.4208 -85.0972 257° West 367 422 15,700 1,250 Climbing Indianapolis Center
Sat 11:20:23 AM 38.3961 -85.2317 258° West 381 438 16,900 1,150 Climbing Indianapolis Center
Sat 11:21:23 AM 38.3731 -85.3664 258° West 394 453 18,000 850 Climbing Indianapolis Center
Sat 11:22:23 AM 38.3500 -85.5033 258° West 394 453 18,600 800 Climbing Indianapolis Center
Sat 11:23:23 AM 38.3269 -85.6431 256° West 399 459 19,600 1,000 Climbing Indianapolis Center
Sat 11:24:23 AM 38.2992 -85.7828 257° West 399 459 20,600 1,000 Climbing Indianapolis Center
Sat 11:25:23 AM 38.2736 -85.9272 258° West 411 473 21,600 1,000 Climbing Indianapolis Center
Sat 11:26:23 AM 38.2497 -86.0667 253° West 416 479 22,600 1,000 Climbing Indianapolis Center
Sat 11:27:23 AM 38.2153 -86.2111 249° West 416 479 23,600 1,000 Climbing Indianapolis Center
Sat 11:28:23 AM 38.1700 -86.3600 248° West 416 479 24,600 1,000 Climbing Indianapolis Center
Sat 11:29:23 AM 38.1250 -86.5008 248° West 423 487 25,600 1,050 Climbing Indianapolis Center
Sat 11:30:23 AM 38.0819 -86.6364 248° West 428 493 26,700 1,050 Climbing Indianapolis Center
Sat 11:31:23 AM 38.0386 -86.7717 250° West 428 493 27,700 1,000 Climbing Indianapolis Center
Sat 11:32:23 AM 37.9994 -86.9069 247° West 423 487 28,700 1,050 Climbing Indianapolis Center
Sat 11:33:23 AM 37.9536 -87.0417 248° West 423 487 29,800 1,150 Climbing Indianapolis Center
Sat 11:34:23 AM 37.9122 -87.1742 250° West 423 487 31,000 1,050 Climbing Indianapolis Center
Sat 11:35:23 AM 37.8769 -87.2961 248° West 423 487 31,900 1,037 Climbing Indianapolis Center
Sat 11:37:05 AM 37.7975 -87.5389 248° West 394 453 33,800 1,111 Climbing Memphis Center
Sat 11:38:05 AM 37.7528 -87.6794 252° West 414 476 34,900 1,000 Climbing Memphis Center
Sat 11:39:05 AM 37.7161 -87.8194 246° West 421 484 35,800 550 Climbing Memphis Center
Sat 11:40:05 AM 37.6689 -87.9547 250° West 421 484 36,000 100 Climbing Memphis Center
Sat 11:41:05 AM 37.6278 -88.0947 246° West 427 491 36,000  Level Memphis Center
Sat 11:42:05 AM 37.5803 -88.2294 248° West 427 491 36,000  Level Memphis Center
Sat 11:43:05 AM 37.5367 -88.3667 248° West 427 491 36,000  Level Memphis Center
Sat 11:44:05 AM 37.4908 -88.5064 246° West 427 491 36,000  Level Memphis Center
Sat 11:45:05 AM 37.4431 -88.6433 247° West 433 498 36,000  Level Memphis Center
Sat 11:46:05 AM 37.3969 -88.7828 240° Southwest 433 498 36,000  Level Memphis Center
Sat 11:47:05 AM 37.3381 -88.9117 226° Southwest 433 498 36,000  Level Memphis Center
Sat 11:48:05 AM 37.2581 -89.0147 224° Southwest 425 489 36,000  Level Memphis Center
Sat 11:49:05 AM 37.1756 -89.1150 226° Southwest 419 482 36,000  Level Memphis Center
Sat 11:50:05 AM 37.0975 -89.2178 226° Southwest 414 476 36,000  Level Memphis Center
Sat 11:51:05 AM 37.0172 -89.3203 225° Southwest 409 471 36,000  Level Memphis Center
Sat 11:52:05 AM 36.9367 -89.4200 226° Southwest 409 471 36,000  Level Memphis Center
Sat 11:53:05 AM 36.8583 -89.5219 225° Southwest 409 471 36,000  Level Memphis Center
Sat 11:54:05 AM 36.7775 -89.6239 226° Southwest 409 471 36,000  Level Memphis Center
Sat 11:55:05 AM 36.7053 -89.7178 225° Southwest 415 478 36,000  Level Memphis Center
Sat 11:56:05 AM 36.6222 -89.8217 225° Southwest 415 478 36,000  Level Memphis Center
Sat 11:57:05 AM 36.5414 -89.9231 224° Southwest 415 478 36,000  Level Memphis Center
Sat 11:58:05 AM 36.4564 -90.0267 225° Southwest 415 478 36,000  Level Memphis Center
Sat 11:59:05 AM 36.3731 -90.1303 225° Southwest 415 478 36,000  Level Memphis Center
Sat 12:00:05 PM 36.2900 -90.2333 225° Southwest 420 483 36,000  Level Memphis Center
Sat 12:01:05 PM 36.2086 -90.3339 225° Southwest 420 483 36,000  Level Memphis Center
Sat 12:02:05 PM 36.1272 -90.4342 226° Southwest 420 483 36,000  Level Memphis Center
Sat 12:03:05 PM 36.0458 -90.5367 224° Southwest 420 483 36,000  Level Memphis Center
Sat 12:04:05 PM 35.9644 -90.6339 224° Southwest 415 478 36,000  Level Memphis Center
Sat 12:05:05 PM 35.8786 -90.7361 225° Southwest 415 478 36,000  Level Memphis Center
Sat 12:06:05 PM 35.7969 -90.8381 225° Southwest 415 478 36,000  Level Memphis Center
Sat 12:07:05 PM 35.7153 -90.9400 226° Southwest 420 483 36,000  Level Memphis Center
Sat 12:08:05 PM 35.6250 -91.0542 224° Southwest 420 483 36,000  Level Memphis Center
Sat 12:09:05 PM 35.5408 -91.1531 226° Southwest 426 490 36,000  Level Memphis Center
Sat 12:10:05 PM 35.4589 -91.2569 222° Southwest 426 490 36,000  Level Memphis Center
Sat 12:11:05 PM 35.3706 -91.3553 224° Southwest 426 490 36,000  Level Memphis Center
Sat 12:12:05 PM 35.2864 -91.4558 224° Southwest 426 490 36,000  Level Memphis Center
Sat 12:13:05 PM 35.2019 -91.5564 224° Southwest 426 490 36,000  Level Memphis Center
Sat 12:14:05 PM 35.1175 -91.6569 224° Southwest 431 496 36,000  Level Memphis Center
Sat 12:15:05 PM 35.0331 -91.7569 225° Southwest 431 496 36,000  Level Memphis Center
Sat 12:16:06 PM 34.9483 -91.8594 224° Southwest 431 496 36,000  Level Memphis Center
Sat 12:17:05 PM 34.8614 -91.9617 225° Southwest 431 496 36,000  Level Memphis Center
Sat 12:18:05 PM 34.7808 -92.0614 223° Southwest 431 496 36,000  Level Memphis Center
Sat 12:19:05 PM 34.6939 -92.1606 223° Southwest 431 496 36,000  Level Memphis Center
Sat 12:20:05 PM 34.6092 -92.2572 238° Southwest 431 496 36,000  Level Memphis Center
Sat 12:21:05 PM 34.5489 -92.3744 255° West 414 476 36,000  Level Memphis Center
Sat 12:22:05 PM 34.5194 -92.5047 257° West 400 460 36,000  Level Memphis Center
Sat 12:23:05 PM 34.4942 -92.6378 256° West 400 460 36,000  Level Memphis Center
Sat 12:24:05 PM 34.4692 -92.7556 257° West 405 466 36,000  Level Memphis Center
Sat 12:25:05 PM 34.4433 -92.8906 256° West 411 473 36,000  Level Memphis Center
Sat 12:26:05 PM 34.4156 -93.0208 258° West 411 473 36,000  Level Memphis Center
Sat 12:27:05 PM 34.3919 -93.1558 257° West 411 473 36,000  Level Memphis Center
Sat 12:29:34 PM 34.3289 -93.4806 254° West 399 459 36,000  Level Fort Worth Center
Sat 12:30:34 PM 34.2972 -93.6100 251° West 399 459 36,000  Level Fort Worth Center
Sat 12:31:34 PM 34.2594 -93.7400 249° West 405 466 36,000  Level Fort Worth Center
Sat 12:32:34 PM 34.2192 -93.8672 250° West 410 472 36,000  Level Fort Worth Center
Sat 12:33:34 PM 34.1792 -93.9994 249° West 416 479 36,000  Level Fort Worth Center
Sat 12:34:34 PM 34.1389 -94.1289 248° West 416 479 36,000  Level Fort Worth Center
Sat 12:35:34 PM 34.0961 -94.2558 250° West 416 479 36,000  Level Fort Worth Center
Sat 12:36:34 PM 34.0556 -94.3878 249° West 416 479 36,000 -100 Level Fort Worth Center
Sat 12:37:34 PM 34.0128 -94.5194 249° West 416 479 35,800 -850 Descending Fort Worth Center
Sat 12:38:34 PM 33.9756 -94.6333 249° West 416 479 34,300 -1,750 Descending Fort Worth Center
Sat 12:39:34 PM 33.9269 -94.7878 247° West 416 479 32,300 -1,950 Descending Fort Worth Center
Sat 12:40:34 PM 33.8814 -94.9167 247° West 416 479 30,400 -2,050 Descending Fort Worth Center
Sat 12:41:34 PM 33.8358 -95.0431 247° West 416 479 28,200 -2,000 Descending Fort Worth Center
Sat 12:42:34 PM 33.7903 -95.1692 246° West 421 484 26,400 -1,800 Descending Fort Worth Center
Sat 12:43:34 PM 33.7444 -95.2928 246° West 416 479 24,600 -1,750 Descending Fort Worth Center
Sat 12:44:34 PM 33.7006 -95.4136 247° West 416 479 22,900 -1,700 Descending Fort Worth Center
Sat 12:45:34 PM 33.6544 -95.5419 249° West 416 479 21,200 -1,650 Descending Fort Worth Center
Sat 12:46:34 PM 33.6186 -95.6550 246° West 416 479 19,600 -1,700 Descending Fort Worth Center
Sat 12:47:34 PM 33.5742 -95.7731 245° Southwest 405 466 17,800 -1,950 Descending Fort Worth Center
Sat 12:48:34 PM 33.5278 -95.8933 246° West 374 430 15,700 -1,850 Descending Fort Worth Center
Sat 12:49:34 PM 33.4892 -95.9986 246° West 361 415 14,100 -1,450 Descending Fort Worth Center
Sat 12:50:34 PM 33.4508 -96.1039 253° West 347 399 12,800 -1,294 Descending Fort Worth Center
Sat 12:51:16 PM 33.4322 -96.1789 245° Southwest 338 389 11,900 -1,157 Descending FAA TRACON SMA TRACON (SMA)
Sat 12:51:57 PM 33.4050 -96.2492 244° Southwest 335 386 11,200 -750 Descending FAA TRACON SMA TRACON (SMA)
Sat 12:52:36 PM 33.3811 -96.3086 245° Southwest 323 372 10,900 -228 Descending FAA TRACON SMA TRACON (SMA)
Sat 12:53:16 PM 33.3572 -96.3706 246° West 296 341 10,900 -225 Level FAA TRACON SMA TRACON (SMA)
Sat 12:53:56 PM 33.3350 -96.4303 247° West 283 326 10,600 -750 Descending FAA TRACON SMA TRACON (SMA)
Sat 12:54:36 PM 33.3167 -96.4819 250° West 275 316 9,900 -1,111 Descending FAA TRACON SMA TRACON (SMA)
Sat 12:55:17 PM 33.2983 -96.5419 249° West 279 321 9,100 -1,200 Descending FAA TRACON SMA TRACON (SMA)
Sat 12:55:56 PM 33.2794 -96.5994 248° West 271 312 8,300 -1,139 Descending FAA TRACON SMA TRACON (SMA)
Sat 12:56:36 PM 33.2628 -96.6497 250° West 266 306 7,600 -963 Descending FAA TRACON SMA TRACON (SMA)
Sat 12:57:17 PM 33.2456 -96.7069 249° West 264 304 7,000 -975 Descending FAA TRACON SMA TRACON (SMA)
Sat 12:57:56 PM 33.2275 -96.7622 250° West 269 310 6,300 -987 Descending FAA TRACON SMA TRACON (SMA)
Sat 12:58:36 PM 33.2114 -96.8153 249° West 266 306 5,700 -975 Descending FAA TRACON SMA TRACON (SMA)
Sat 12:59:16 PM 33.1942 -96.8692 235° Southwest 260 299 5,000 -825 Descending FAA TRACON SMA TRACON (SMA)
Sat 12:59:56 PM 33.1667 -96.9167 218° Southwest 245 282 4,600 -975 Descending FAA TRACON SMA TRACON (SMA)
Sat 01:00:36 PM 33.1317 -96.9492 214° Southwest 237 273 3,700 -1,050 Descending FAA TRACON SMA TRACON (SMA)
Sat 01:01:16 PM 33.1008 -96.9744 215° Southwest 214 246 3,200 -600 Descending FAA TRACON SMA TRACON (SMA)
Sat 01:01:56 PM 33.0717 -96.9992 215° Southwest 182 209 2,900 -450 Descending FAA TRACON SMA TRACON (SMA)

Login

Don't have an account? Register now (free) for customized features, flight alerts, and more!